SHASTA DAM (USBR) (SHA)

Elevation: 1067' · SACRAMENTO R basin · Operator: US Bureau of Reclamation

Provisional data, subject to change.
Query executed Monday at 21:26:03   clock

Select a sensor type for a plot of data.
Note: Reservoir Flows are daily averages.

Earlier

Date RES ELE    STORAGE    RES CHG    TOC STO    ABV TOC    OUTFLOW    INFLOW    EVAP    FNF    RIV REL    PPT INC    RAIN    SPILL    DIS PWR   
 FEET   AF   AF   AF   AF   CFS   CFS   CFS   CFS   CFS   INCHES   INCHES   CFS   CFS  
06/26/2016 1045.85 3949280 -10334 4552100 -602820 7694 2732 248 3393 0 0.00 65.43 0 7694
06/27/2016 1045.60 3942501 -6779 4552100 -- 7575 4477 320 3499 0 0.00 65.43 0 7575
06/28/2016 1045.32 3934909 -7592 4552100 -617191 7800 4451 479 3353 0 0.00 65.43 0 7800
06/29/2016 1045.07 3928130 -6779 4552100 -623970 7311 4172 279 3300 0 0.00 65.43 0 7311
06/30/2016 1044.78 3920296 -7834 4552100 -- 7621 3965 294 3076 0 0.00 65.43 0 7621
07/01/2016 1044.34 3908423 -11873 4552100 -643677 8578 2894 302 3036 0 0.00 65.43 0 8578
07/02/2016 1043.86 3895488 -12935 4552100 -656612 8355 2135 301 3435 0 0.00 65.43 0 8355
07/03/2016 1043.40 3883133 -12355 4552100 -668967 7731 1834 332 2974 0 0.00 65.43 0 7731
07/04/2016 1042.93 3870519 -12614 4552100 -681581 8211 2128 276 3166 0 0.00 65.43 0 8211
07/05/2016 1042.50 3859027 -11492 4552100 -693073 8097 2665 362 2965 0 0.00 65.43 0 8097
07/06/2016 1042.12 3848870 -10157 4552100 -703230 7702 2817 236 2647 0 0.00 65.43 0 7702
07/07/2016 1041.71 3837948 -10922 4552100 -714152 8396 3196 306 2959 0 0.00 65.43 0 8396
07/08/2016 1041.33 3827839 -10109 4552100 -724261 8733 3942 306 3093 0 0.00 65.43 0 8733
07/09/2016 1040.85 3815090 -12749 4552100 -737010 8365 2172 235 2936 0 0.00 65.43 0 8365
07/10/2016 1040.30 3800531 -14559 4552100 -751569 8989 1899 250 2789 0 0.00 65.43 0 8989
07/11/2016 1039.73 3785438 -15093 4552100 -766662 9366 1920 163 2783 0 0.00 65.43 0 9366
07/12/2016 1039.25 3772723 -12715 4552100 -779377 8688 2627 349 3059 0 0.00 65.43 0 8688
07/13/2016 1038.85 3762147 -10576 4552100 -789953 8832 3771 271 2735 0 0.00 65.43 0 8832
07/14/2016 1038.47 3752131 -10016 4552100 -799969 8100 3328 278 2303 0 0.00 65.43 0 8100
07/15/2016 1038.13 3743170 -8961 4552100 -808930 8817 4608 309 3486 0 0.00 65.43 0 8817
07/16/2016 1037.60 3729253 -13917 4552100 -822847 8277 1615 354 2735 0 0.00 65.43 0 8277
07/17/2016 1037.06 3715091 -14162 4552100 -837009 8298 1527 369 2676 0 0.00 65.43 0 8298
07/18/2016 1036.63 3703859 -11232 4552100 -848241 8565 3201 299 2913 0 0.00 65.43 0 8565
07/19/2016 1036.21 3692896 -10963 4552100 -859204 8559 3376 344 2895 0 0.00 65.43 0 8559
07/20/2016 1035.82 3682740 -10156 4552100 -869360 8650 3797 267 2794 0 0.00 65.43 0 8650
07/21/2016 1035.38 3671312 -11428 4552100 -880788 9106 3611 267 2762 0 0.00 65.43 0 9106
07/22/2016 1034.89 3658599 -12713 4552100 -893501 9221 3071 259 2711 0 0.00 65.43 0 9221
07/23/2016 1034.33 3644125 -14474 4552100 -907975 9207 2183 273 2768 0 0.00 65.43 0 9207
07/24/2016 1033.80 3630452 -13673 4552100 -921648 8812 2222 303 2603 0 0.00 65.43 0 8812
07/25/2016 -- -- -- -- -- -- -- -- -- -- -- -- -- --

Later | Latest

Warning! This data is preliminary and subject to revision.

Show SHA Map | Plot SHA Data | 1 Month SHA Data | Real-Time SHA Data | SHA Info